createdAt,value
2022-09-15T00:00:11.872Z,94.46
2022-09-15T00:02:38.918Z,94.16
2022-09-15T00:05:06.075Z,94.42
2022-09-15T00:07:32.942Z,94.24
2022-09-15T00:09:59.858Z,94.41
2022-09-15T00:12:27.972Z,94.23
2022-09-15T00:14:54.969Z,94.43
2022-09-15T00:17:21.961Z,94.36
2022-09-15T00:19:48.891Z,94.40
2022-09-15T00:22:16.183Z,94.68
2022-09-15T00:24:43.127Z,94.55
2022-09-15T00:27:10.024Z,94.41
2022-09-15T00:29:36.980Z,94.29
2022-09-15T00:32:04.031Z,95.03
2022-09-15T00:34:30.924Z,95.26
2022-09-15T00:36:57.800Z,94.80
2022-09-15T00:39:24.759Z,94.98
2022-09-15T00:41:51.807Z,94.98
2022-09-15T00:44:18.632Z,95.35
2022-09-15T00:47:09.335Z,95.48
2022-09-15T00:49:39.262Z,95.31
2022-09-15T00:52:08.046Z,95.03
2022-09-15T00:54:57.920Z,95.33
2022-09-15T00:57:35.985Z,95.49
2022-09-15T01:02:54.352Z,95.15
2022-09-15T01:05:25.528Z,95.12
2022-09-15T01:08:14.291Z,95.18
2022-09-15T01:10:41.439Z,95.47
2022-09-15T01:13:12.805Z,95.42
2022-09-15T01:19:19.556Z,95.21
2022-09-15T01:21:53.663Z,95.38
2022-09-15T01:24:35.008Z,95.31
2022-09-15T01:27:40.500Z,95.49
2022-09-15T01:30:14.461Z,94.18
2022-09-15T01:33:15.038Z,93.27
2022-09-15T01:35:48.258Z,93.56
2022-09-15T01:38:36.716Z,93.34
2022-09-15T01:41:19.450Z,92.51
2022-09-15T01:44:11.923Z,92.63
2022-09-15T01:46:50.148Z,92.52
2022-09-15T01:49:22.451Z,92.17
2022-09-15T01:51:52.481Z,92.90
2022-09-15T01:54:33.964Z,92.88
2022-09-15T01:57:03.231Z,92.73
2022-09-15T01:59:31.457Z,92.72
2022-09-15T02:02:05.473Z,92.92
2022-09-15T02:04:36.806Z,93.00
2022-09-15T02:07:11.798Z,92.79
2022-09-15T02:09:47.055Z,93.39
2022-09-15T02:12:34.058Z,93.29
2022-09-15T02:15:08.020Z,93.82
2022-09-15T02:17:39.089Z,93.62
2022-09-15T02:20:33.457Z,93.44
2022-09-15T02:23:08.587Z,93.41
2022-09-15T02:25:45.076Z,93.52
2022-09-15T02:28:13.972Z,94.05
2022-09-15T02:30:45.024Z,92.90
2022-09-15T02:33:19.937Z,93.20
2022-09-15T02:35:47.564Z,93.37
2022-09-15T02:38:15.281Z,93.52
2022-09-15T02:40:43.918Z,93.36
2022-09-15T02:43:20.010Z,93.12
2022-09-15T02:45:47.025Z,93.09
2022-09-15T02:48:13.973Z,92.79
2022-09-15T02:50:41.436Z,92.93
2022-09-15T02:53:09.141Z,92.59
2022-09-15T02:55:36.237Z,93.09
2022-09-15T02:58:03.214Z,93.05
2022-09-15T03:00:31.261Z,93.45
2022-09-15T03:02:58.659Z,93.19
2022-09-15T03:05:30.265Z,93.24
2022-09-15T03:07:57.437Z,93.33
2022-09-15T03:10:25.954Z,93.79
2022-09-15T03:12:54.522Z,93.38
2022-09-15T03:15:24.544Z,93.26
2022-09-15T03:17:52.422Z,93.46
2022-09-15T03:20:22.744Z,92.93
2022-09-15T03:22:50.093Z,93.29
2022-09-15T03:25:17.828Z,93.32
2022-09-15T03:27:45.030Z,93.50
2022-09-15T03:30:12.844Z,93.34
2022-09-15T03:32:40.338Z,93.02
2022-09-15T03:35:07.977Z,93.19
2022-09-15T03:37:35.281Z,93.49
2022-09-15T03:40:03.895Z,93.04
2022-09-15T03:42:31.109Z,93.28
2022-09-15T03:44:58.074Z,93.94
2022-09-15T03:47:25.381Z,93.18
2022-09-15T03:49:52.298Z,92.92
2022-09-15T03:52:19.175Z,93.07
2022-09-15T03:54:48.046Z,93.46
2022-09-15T03:57:15.000Z,93.64
2022-09-15T03:59:41.896Z,93.67
2022-09-15T04:02:08.822Z,93.29
2022-09-15T04:04:36.080Z,93.29
2022-09-15T04:07:02.980Z,93.37
2022-09-15T04:09:30.662Z,93.29
2022-09-15T04:11:57.576Z,93.03
2022-09-15T04:14:24.580Z,93.54
2022-09-15T04:16:51.567Z,92.89
2022-09-15T04:19:18.476Z,92.96
2022-09-15T04:21:47.471Z,92.27
2022-09-15T04:24:14.480Z,92.41
2022-09-15T04:26:41.806Z,92.54
2022-09-15T04:29:14.397Z,92.52
2022-09-15T04:31:41.893Z,92.50
2022-09-15T04:34:09.494Z,91.81
2022-09-15T04:36:36.588Z,92.29
2022-09-15T04:39:04.115Z,91.77
2022-09-15T04:41:31.002Z,91.87
2022-09-15T04:43:58.688Z,91.72
2022-09-15T04:46:26.141Z,91.37
2022-09-15T04:48:53.127Z,91.74
2022-09-15T04:51:22.173Z,91.84
2022-09-15T04:53:50.258Z,91.83
2022-09-15T04:56:25.679Z,92.42
2022-09-15T04:58:58.253Z,92.41
2022-09-15T05:01:30.918Z,92.60
2022-09-15T05:03:58.108Z,92.93
2022-09-15T05:06:27.775Z,92.91
2022-09-15T05:08:56.840Z,92.84
2022-09-15T05:11:24.679Z,92.78
2022-09-15T05:13:51.881Z,92.80
2022-09-15T05:16:27.278Z,92.66
2022-09-15T05:18:56.932Z,93.64
2022-09-15T05:21:24.372Z,92.97
2022-09-15T05:23:52.134Z,92.55
2022-09-15T05:26:22.668Z,92.87
2022-09-15T05:28:50.285Z,92.63
2022-09-15T05:31:23.598Z,92.88
2022-09-15T05:33:52.795Z,92.68
2022-09-15T05:36:23.818Z,92.22
2022-09-15T05:38:52.398Z,92.55
2022-09-15T05:41:20.926Z,92.72
2022-09-15T05:43:48.953Z,92.47
2022-09-15T05:46:18.106Z,92.66
2022-09-15T05:48:45.318Z,92.30
2022-09-15T05:51:13.093Z,92.01
2022-09-15T05:53:40.241Z,92.20
2022-09-15T05:56:12.151Z,92.02
2022-09-15T05:58:44.605Z,91.50
2022-09-15T06:01:17.811Z,91.26
2022-09-15T06:03:45.125Z,91.29
2022-09-15T06:06:12.353Z,91.50
2022-09-15T06:08:44.254Z,91.09
2022-09-15T06:11:13.948Z,90.93
2022-09-15T06:13:41.417Z,91.43
2022-09-15T06:16:17.214Z,91.10
2022-09-15T06:18:44.266Z,91.89
2022-09-15T06:21:17.058Z,92.26
2022-09-15T06:23:48.586Z,91.95
2022-09-15T06:26:19.141Z,92.50
2022-09-15T06:28:55.008Z,92.74
2022-09-15T06:31:22.953Z,92.92
2022-09-15T06:33:53.094Z,92.98
2022-09-15T06:36:22.613Z,92.94
2022-09-15T06:38:50.047Z,93.00
2022-09-15T06:41:17.095Z,92.68
2022-09-15T06:43:45.193Z,92.46
2022-09-15T06:46:15.291Z,92.48
2022-09-15T06:48:46.335Z,93.86
2022-09-15T06:51:17.328Z,93.74
2022-09-15T06:53:45.055Z,92.85
2022-09-15T06:56:16.835Z,92.80
2022-09-15T06:58:46.020Z,92.80
2022-09-15T07:01:18.758Z,92.40
2022-09-15T07:03:45.767Z,93.21
2022-09-15T07:06:13.274Z,93.12
2022-09-15T07:08:40.982Z,92.96
2022-09-15T07:11:09.698Z,92.92
2022-09-15T07:13:37.521Z,92.83
2022-09-15T07:16:06.866Z,92.71
2022-09-15T07:18:37.584Z,92.30
2022-09-15T07:21:09.575Z,92.33
2022-09-15T07:23:36.749Z,91.95
2022-09-15T07:26:06.920Z,92.11
2022-09-15T07:28:33.971Z,91.51
2022-09-15T07:31:01.146Z,91.75
2022-09-15T07:33:28.884Z,91.64
2022-09-15T07:35:55.924Z,91.47
2022-09-15T07:38:22.813Z,90.93
2022-09-15T07:40:49.962Z,90.96
2022-09-15T07:43:16.876Z,90.48
2022-09-15T07:45:43.836Z,90.31
2022-09-15T07:48:11.023Z,90.59
2022-09-15T07:50:38.282Z,88.97
2022-09-15T07:53:05.212Z,89.80
2022-09-15T07:55:33.002Z,90.22
2022-09-15T07:58:01.184Z,90.17
2022-09-15T08:00:28.448Z,89.55
2022-09-15T08:02:56.465Z,89.63
2022-09-15T08:05:28.322Z,89.38
2022-09-15T08:07:56.392Z,89.68
2022-09-15T08:10:25.341Z,89.05
2022-09-15T08:12:53.063Z,89.24
2022-09-15T08:15:20.476Z,89.18
2022-09-15T08:17:47.525Z,89.25
2022-09-15T08:20:14.473Z,88.93
2022-09-15T08:22:42.450Z,88.92
2022-09-15T08:25:09.838Z,88.82
2022-09-15T08:27:38.105Z,89.00
2022-09-15T08:30:06.257Z,88.88
2022-09-15T08:32:33.651Z,88.99
2022-09-15T08:35:00.561Z,89.41
2022-09-15T08:37:27.521Z,88.51
2022-09-15T08:39:54.400Z,88.51
2022-09-15T08:42:24.196Z,88.15
2022-09-15T08:44:59.759Z,88.39
2022-09-15T08:47:36.875Z,88.67
2022-09-15T08:50:18.795Z,88.56
2022-09-15T08:52:52.546Z,88.81
2022-09-15T08:55:26.888Z,88.54
2022-09-15T08:57:54.554Z,89.09
2022-09-15T09:00:21.678Z,88.91
2022-09-15T09:03:10.264Z,88.75
2022-09-15T09:05:55.436Z,87.86
2022-09-15T09:08:34.330Z,88.27
2022-09-15T09:11:16.473Z,88.71
2022-09-15T09:14:13.616Z,88.08
2022-09-15T09:17:08.098Z,88.80
2022-09-15T09:19:53.397Z,88.41
2022-09-15T09:22:28.706Z,87.86
2022-09-15T09:24:58.673Z,87.68
2022-09-15T09:27:29.975Z,87.16
2022-09-15T09:30:19.315Z,86.91
2022-09-15T09:33:07.484Z,86.69
2022-09-15T09:35:46.317Z,86.04
2022-09-15T09:38:22.769Z,85.58
2022-09-15T09:40:49.886Z,85.74
2022-09-15T09:43:17.115Z,85.71
2022-09-15T09:45:45.940Z,85.07
2022-09-15T09:48:20.620Z,84.68
2022-09-15T09:50:49.747Z,84.46
2022-09-15T09:53:26.387Z,84.44
2022-09-15T09:56:15.442Z,83.62
2022-09-15T09:58:42.924Z,83.46
2022-09-15T10:01:15.243Z,82.99
2022-09-15T10:03:43.910Z,83.34
2022-09-15T10:06:22.364Z,83.84
2022-09-15T10:08:58.777Z,83.20
2022-09-15T10:11:40.935Z,83.47
2022-09-15T10:14:19.120Z,83.18
2022-09-15T10:17:04.721Z,83.30
2022-09-15T10:19:35.435Z,83.67
2022-09-15T10:22:03.432Z,83.68
2022-09-15T10:24:39.938Z,82.94
2022-09-15T10:27:29.849Z,83.26
2022-09-15T10:30:16.637Z,82.72
2022-09-15T10:32:43.627Z,82.67
2022-09-15T10:35:11.593Z,83.35
2022-09-15T10:38:17.238Z,83.04
2022-09-15T10:40:52.250Z,82.47
2022-09-15T10:43:28.213Z,82.23
2022-09-15T10:46:26.606Z,81.83
2022-09-15T10:49:05.507Z,82.98
2022-09-15T10:51:51.084Z,82.29
2022-09-15T10:54:17.930Z,82.19
2022-09-15T10:56:55.271Z,81.93
2022-09-15T10:59:36.014Z,81.78
2022-09-15T11:02:18.291Z,81.69
2022-09-15T11:05:11.743Z,82.16
2022-09-15T11:07:55.371Z,82.78
2022-09-15T11:10:47.197Z,84.88
2022-09-15T11:13:39.968Z,85.76
2022-09-15T11:16:09.964Z,86.28
2022-09-15T11:18:58.541Z,86.35
2022-09-15T11:21:46.607Z,86.57
2022-09-15T11:24:48.069Z,87.05
2022-09-15T11:27:22.822Z,87.31
2022-09-15T11:30:11.383Z,87.28
2022-09-15T11:32:46.438Z,86.91
2022-09-15T11:35:45.257Z,87.23
2022-09-15T11:38:34.518Z,87.23
2022-09-15T11:41:26.521Z,87.88
2022-09-15T11:44:30.613Z,88.05
2022-09-15T11:47:24.856Z,87.62
2022-09-15T11:50:08.180Z,86.65
2022-09-15T11:52:55.206Z,86.58
2022-09-15T11:55:40.757Z,86.71
2022-09-15T11:58:45.245Z,86.00
2022-09-15T12:01:12.171Z,85.55
2022-09-15T12:03:54.420Z,84.74
2022-09-15T12:06:47.902Z,84.05
2022-09-15T12:09:17.986Z,84.02
2022-09-15T12:11:58.512Z,83.54
2022-09-15T12:14:41.428Z,83.31
2022-09-15T12:17:33.599Z,82.74
2022-09-15T12:20:16.061Z,81.97
2022-09-15T12:22:47.122Z,80.73
2022-09-15T12:25:24.109Z,80.24
2022-09-15T12:28:22.445Z,79.31
2022-09-15T12:31:10.922Z,79.85
2022-09-15T12:33:53.778Z,79.30
2022-09-15T12:36:31.486Z,79.02
2022-09-15T12:38:59.904Z,79.23
2022-09-15T12:41:27.619Z,78.71
2022-09-15T12:44:03.836Z,79.34
2022-09-15T12:46:31.111Z,78.93
2022-09-15T12:49:03.226Z,78.71
2022-09-15T12:51:30.877Z,78.79
2022-09-15T12:54:07.509Z,78.66
2022-09-15T12:56:35.317Z,77.56
2022-09-15T12:59:07.730Z,76.04
2022-09-15T13:01:47.800Z,76.42
2022-09-15T13:04:41.514Z,72.83
2022-09-15T13:07:18.609Z,74.45
2022-09-15T13:10:04.898Z,74.30
2022-09-15T13:12:38.261Z,71.98
2022-09-15T13:15:13.261Z,71.47
2022-09-15T13:17:44.515Z,74.19
2022-09-15T13:20:18.105Z,74.34
2022-09-15T13:22:51.048Z,75.34
2022-09-15T13:25:26.294Z,76.16
2022-09-15T13:27:54.822Z,76.66
2022-09-15T13:30:22.182Z,77.25
2022-09-15T13:33:06.749Z,76.48
2022-09-15T13:35:42.720Z,77.96
2022-09-15T13:38:22.676Z,77.80
2022-09-15T13:41:19.370Z,77.23
2022-09-15T13:43:52.051Z,77.67
2022-09-15T13:46:28.977Z,77.59
2022-09-15T13:49:33.340Z,78.15
2022-09-15T13:52:14.264Z,78.25
2022-09-15T13:55:17.323Z,78.16
2022-09-15T14:00:45.150Z,78.78
2022-09-15T14:03:17.469Z,78.80
2022-09-15T14:05:45.600Z,77.94
2022-09-15T14:08:29.036Z,77.11
2022-09-15T14:11:01.245Z,78.07
2022-09-15T14:13:30.103Z,78.07
2022-09-15T14:15:58.744Z,78.11
2022-09-15T14:18:25.953Z,78.58
2022-09-15T14:21:04.713Z,78.37
2022-09-15T14:23:32.841Z,78.09
2022-09-15T14:26:02.008Z,77.97
2022-09-15T14:28:32.478Z,78.48
2022-09-15T14:31:01.284Z,78.89
2022-09-15T14:33:40.205Z,78.82
2022-09-15T14:36:34.529Z,79.72
2022-09-15T14:39:17.998Z,79.05
2022-09-15T14:41:45.577Z,78.99
2022-09-15T14:47:23.197Z,79.51
2022-09-15T14:50:11.545Z,79.85
2022-09-15T14:52:41.573Z,80.06
2022-09-15T14:55:15.630Z,79.39
2022-09-15T14:57:51.679Z,80.17
2022-09-15T15:00:23.680Z,80.90
2022-09-15T15:02:56.917Z,79.77
2022-09-15T15:05:40.794Z,78.80
2022-09-15T15:08:13.045Z,78.93
2022-09-15T15:10:41.357Z,79.44
2022-09-15T15:13:16.317Z,79.72
2022-09-15T15:15:44.788Z,79.20
2022-09-15T15:18:47.463Z,79.28
2022-09-15T15:21:37.321Z,79.56
2022-09-15T15:24:13.174Z,79.80
2022-09-15T15:26:42.479Z,80.80
2022-09-15T15:29:39.648Z,79.97
2022-09-15T15:32:12.094Z,80.39
2022-09-15T15:34:39.195Z,81.71
2022-09-15T15:37:29.115Z,82.67
2022-09-15T15:39:58.871Z,83.20
2022-09-15T15:42:26.771Z,83.27
2022-09-15T15:45:09.915Z,83.77
2022-09-15T15:47:37.223Z,84.24
2022-09-15T15:50:20.942Z,85.27
2022-09-15T15:52:49.492Z,85.76
2022-09-15T15:55:20.044Z,85.79
2022-09-15T15:57:50.308Z,86.77
2022-09-15T16:00:26.561Z,86.68
2022-09-15T16:02:54.204Z,87.46
2022-09-15T16:05:25.359Z,87.96
2022-09-15T16:07:53.713Z,88.06
2022-09-15T16:10:24.600Z,89.16
2022-09-15T16:12:52.141Z,89.23
2022-09-15T16:15:21.399Z,90.01
2022-09-15T16:17:49.105Z,90.05
2022-09-15T16:20:17.002Z,90.73
2022-09-15T16:22:44.244Z,91.12
2022-09-15T16:25:28.847Z,91.19
2022-09-15T16:27:55.940Z,92.38
2022-09-15T16:30:23.061Z,92.57
2022-09-15T16:32:50.012Z,92.71
2022-09-15T16:35:51.203Z,92.79
2022-09-15T16:38:19.846Z,93.03
2022-09-15T16:40:47.993Z,94.19
2022-09-15T16:43:21.673Z,94.16
2022-09-15T16:45:49.830Z,93.81
2022-09-15T16:48:17.377Z,94.59
2022-09-15T16:51:01.719Z,95.00
2022-09-15T16:53:32.809Z,95.37
2022-09-15T16:55:59.867Z,95.72
2022-09-15T16:58:26.892Z,95.69
2022-09-15T17:00:53.891Z,96.37
2022-09-15T17:03:24.673Z,96.69
2022-09-15T17:05:57.550Z,96.19
2022-09-15T17:08:31.333Z,96.09
2022-09-15T17:11:00.504Z,96.26
2022-09-15T17:13:30.691Z,96.38
2022-09-15T17:15:58.852Z,96.19
2022-09-15T17:18:26.992Z,96.45
2022-09-15T17:20:54.363Z,96.60
2022-09-15T17:23:25.464Z,96.76
2022-09-15T17:25:57.498Z,96.47
2022-09-15T17:28:27.247Z,96.63
2022-09-15T17:30:59.038Z,96.76
2022-09-15T17:33:27.631Z,97.37
2022-09-15T17:35:55.472Z,97.59
2022-09-15T17:38:22.646Z,97.83
2022-09-15T17:40:50.638Z,97.62
2022-09-15T17:43:19.909Z,97.96
2022-09-15T17:45:48.138Z,97.78
2022-09-15T17:48:16.015Z,98.29
2022-09-15T17:50:43.984Z,98.17
2022-09-15T17:53:22.862Z,97.97
2022-09-15T17:55:51.050Z,97.99
2022-09-15T17:58:18.464Z,98.41
2022-09-15T18:00:46.733Z,98.73
2022-09-15T18:03:33.324Z,98.95
2022-09-15T18:06:04.196Z,98.94
2022-09-15T18:08:32.985Z,99.28
2022-09-15T18:11:01.124Z,99.20
2022-09-15T18:13:31.022Z,99.20
2022-09-15T18:16:03.027Z,99.47
2022-09-15T18:18:30.513Z,99.28
2022-09-15T18:20:58.320Z,99.65
2022-09-15T18:23:28.529Z,99.72
2022-09-15T18:25:55.667Z,99.87
2022-09-15T18:28:22.750Z,99.81
2022-09-15T18:30:50.429Z,100.00
2022-09-15T18:33:22.977Z,100.00
2022-09-15T18:35:53.046Z,100.00
2022-09-15T18:38:20.800Z,100.00
2022-09-15T18:40:57.151Z,100.00
2022-09-15T18:43:27.157Z,100.00
2022-09-15T18:46:01.380Z,100.00
2022-09-15T18:48:28.954Z,100.00
2022-09-15T18:50:56.396Z,100.00
2022-09-15T18:53:23.520Z,100.00
2022-09-15T18:55:50.620Z,100.00
2022-09-15T18:58:19.563Z,100.00
2022-09-15T19:00:46.862Z,100.00
2022-09-15T19:03:14.357Z,100.00
2022-09-15T19:05:41.577Z,100.00
2022-09-15T19:08:09.322Z,100.00
2022-09-15T19:10:38.438Z,100.00
2022-09-15T19:13:05.454Z,100.00
2022-09-15T19:15:34.577Z,100.00
2022-09-15T19:18:02.191Z,100.00
2022-09-15T19:20:29.446Z,100.00
2022-09-15T19:22:57.369Z,100.00
2022-09-15T19:25:24.297Z,100.00
2022-09-15T19:27:51.251Z,100.00
2022-09-15T19:30:18.174Z,100.00
2022-09-15T19:32:45.071Z,100.00
2022-09-15T19:35:12.073Z,100.00
2022-09-15T19:37:41.326Z,100.00
2022-09-15T19:40:11.768Z,100.00
2022-09-15T19:42:40.420Z,100.00
2022-09-15T19:45:09.073Z,100.00
2022-09-15T19:47:36.688Z,100.00
2022-09-15T19:50:06.122Z,100.00
2022-09-15T19:52:33.240Z,100.00
2022-09-15T19:55:00.295Z,100.00
2022-09-15T19:57:27.282Z,100.00
2022-09-15T19:59:54.152Z,100.00
2022-09-15T20:02:21.104Z,100.00
2022-09-15T20:05:01.806Z,100.00
2022-09-15T20:07:32.139Z,100.00
2022-09-15T20:09:59.082Z,100.00
2022-09-15T20:12:26.835Z,100.00
2022-09-15T20:14:54.549Z,100.00
2022-09-15T20:17:21.460Z,100.00
2022-09-15T20:19:48.528Z,100.00
2022-09-15T20:22:15.476Z,100.00
2022-09-15T20:24:42.411Z,100.00
2022-09-15T20:27:09.513Z,100.00
2022-09-15T20:29:36.383Z,100.00
2022-09-15T20:34:52.063Z,100.00
2022-09-15T20:37:19.180Z,100.00
2022-09-15T20:39:49.277Z,100.00
2022-09-15T20:42:16.215Z,100.00
2022-09-15T20:44:43.118Z,100.00
2022-09-15T20:47:09.990Z,100.00
2022-09-15T20:49:36.953Z,100.00
2022-09-15T20:52:03.917Z,100.00
2022-09-15T20:54:30.844Z,100.00
2022-09-15T20:56:57.693Z,100.00
2022-09-15T20:59:25.721Z,100.00
2022-09-15T21:01:52.624Z,100.00
2022-09-15T21:04:20.101Z,100.00
2022-09-15T21:06:47.121Z,100.00
2022-09-15T21:09:14.157Z,100.00
2022-09-15T21:11:43.349Z,100.00
2022-09-15T21:14:14.258Z,100.00
2022-09-15T21:16:41.970Z,100.00
2022-09-15T21:19:09.638Z,100.00
2022-09-15T21:21:36.610Z,100.00
2022-09-15T21:24:06.656Z,100.00
2022-09-15T21:27:01.057Z,100.00
2022-09-15T21:29:29.100Z,100.00
2022-09-15T21:31:56.186Z,100.00
2022-09-15T21:34:23.976Z,100.00
2022-09-15T21:36:51.942Z,100.00
2022-09-15T21:39:19.072Z,100.00
2022-09-15T21:41:45.969Z,100.00
2022-09-15T21:44:12.972Z,100.00
2022-09-15T21:46:39.917Z,100.00
2022-09-15T21:49:06.814Z,100.00
2022-09-15T21:51:33.844Z,100.00
2022-09-15T21:54:00.855Z,100.00
2022-09-15T21:56:29.613Z,100.00
2022-09-15T21:58:57.067Z,100.00
2022-09-15T22:01:27.974Z,100.00
2022-09-15T22:04:03.531Z,100.00
2022-09-15T22:06:33.628Z,100.00
2022-09-15T22:09:06.054Z,100.00
2022-09-15T22:11:33.374Z,100.00
2022-09-15T22:14:03.138Z,100.00
2022-09-15T22:16:30.429Z,100.00
2022-09-15T22:18:57.651Z,100.00
2022-09-15T22:21:27.186Z,100.00
2022-09-15T22:23:56.450Z,100.00
2022-09-15T22:26:28.608Z,100.00
2022-09-15T22:28:56.471Z,100.00
2022-09-15T22:31:24.995Z,100.00
2022-09-15T22:33:52.812Z,100.00
2022-09-15T22:36:30.669Z,100.00
2022-09-15T22:39:05.847Z,100.00
2022-09-15T22:41:35.874Z,100.00
2022-09-15T22:44:04.062Z,100.00
2022-09-15T22:46:31.482Z,100.00
2022-09-15T22:48:58.639Z,100.00
2022-09-15T22:51:25.559Z,100.00
2022-09-15T22:53:54.718Z,100.00
2022-09-15T22:56:21.890Z,100.00
2022-09-15T22:58:49.814Z,100.00
2022-09-15T23:01:22.600Z,100.00
2022-09-15T23:03:51.681Z,100.00
2022-09-15T23:06:19.431Z,100.00
2022-09-15T23:08:56.810Z,100.00
2022-09-15T23:11:24.817Z,100.00
2022-09-15T23:13:53.358Z,100.00
2022-09-15T23:16:20.719Z,100.00
2022-09-15T23:18:48.389Z,100.00
2022-09-15T23:21:15.428Z,100.00
2022-09-15T23:23:44.397Z,100.00
2022-09-15T23:26:12.888Z,100.00
2022-09-15T23:28:40.207Z,100.00
2022-09-15T23:31:08.485Z,100.00
2022-09-15T23:33:35.520Z,100.00
2022-09-15T23:36:04.916Z,100.00
2022-09-15T23:38:35.750Z,100.00
2022-09-15T23:41:02.779Z,100.00
2022-09-15T23:43:29.963Z,100.00
2022-09-15T23:45:56.805Z,100.00
2022-09-15T23:48:23.845Z,100.00
2022-09-15T23:50:50.803Z,100.00
2022-09-15T23:53:18.708Z,100.00
2022-09-15T23:55:46.888Z,100.00
2022-09-15T23:58:13.850Z,100.00
